Terminal Aerodrome Forecast
Issued by NWS Brownsville, TX

Home | Current Version | Previous Version | Text Only | Print | Product List | Glossary On
Versions: 1 2 3 4 5 6 7 8 9 10 11 12 13 14
326
FTUS44 KBRO 251120
TAFHRL
TAF
KHRL 251120Z 2512/2612 13009KT P6SM SCT020
     FM251600 15013G18KT P6SM VCSH SCT040 BKN070
     FM252100 13012G20KT P6SM BKN050 BKN100
     FM260200 13008KT P6SM BKN050 BKN100=

USA.gov is the U.S. government's official web portal to all federal, state and local government web resources and services.